Time;durP1;ratioP1;P1;durP2;ratioP2;P2;SDS_P1;SDS_P2;PMS_P1;PMS_P2;Temp;Humidity;BMP_temperature;BMP_pressure;BME280_temperature;BME280_humidity;BME280_pressure;Samples;Min_cycle;Max_cycle;Signal;HPM_P1;HPM_P2
2021/09/23 00:01:14;;;;;;;11.20;10.00;;;;;;;10.67;83.38;95164.66;5093813;28;20435;-80
2021/09/23 00:04:01;;;;;;;10.00;8.93;;;;;;;10.74;82.40;95171.09;5112942;28;20439;-79
2021/09/23 00:06:30;;;;;;;11.50;10.20;;;;;;;10.69;83.74;95168.81;5112853;28;20497;-80
2021/09/23 00:08:57;;;;;;;12.50;10.80;;;;;;;10.73;82.83;95172.06;5112934;28;20813;-79
2021/09/23 00:11:24;;;;;;;11.90;9.90;;;;;;;10.77;83.42;95176.94;5112704;28;20438;-79
2021/09/23 00:13:50;;;;;;;12.27;9.33;;;;;;;10.77;83.75;95176.09;5077427;28;20449;-80
2021/09/23 00:16:20;;;;;;;12.37;9.97;;;;;;;10.82;83.63;95177.38;5112638;28;20922;-79
2021/09/23 00:18:47;;;;;;;12.73;10.20;;;;;;;10.83;83.83;95180.84;5113264;28;20505;-80
2021/09/23 00:21:13;;;;;;;10.33;9.20;;;;;;;10.74;82.66;95174.56;5093530;28;20514;-79
2021/09/23 00:23:43;;;;;;;9.50;7.70;;;;;;;10.74;83.33;95171.94;5112767;28;20444;-79
2021/09/23 00:26:10;;;;;;;8.77;7.63;;;;;;;10.71;83.58;95172.19;5112836;28;20431;-79
2021/09/23 00:28:37;;;;;;;9.83;8.57;;;;;;;10.60;84.54;95166.09;5112768;28;20454;-79
2021/09/23 00:31:04;;;;;;;9.40;8.33;;;;;;;10.54;84.43;95160.41;5112454;28;20438;-79
2021/09/23 00:33:31;;;;;;;9.43;7.87;;;;;;;10.60;84.94;95159.06;5112511;28;20529;-79
2021/09/23 00:35:58;;;;;;;8.57;7.67;;;;;;;10.57;85.55;95163.75;5112903;28;20478;-80
2021/09/23 00:38:25;;;;;;;8.60;7.57;;;;;;;10.54;85.53;95155.16;5093523;28;20886;-79
2021/09/23 00:40:53;;;;;;;8.93;7.83;;;;;;;10.64;84.62;95164.91;5112606;28;20434;-79
2021/09/23 00:43:20;;;;;;;9.33;7.30;;;;;;;10.66;84.77;95168.22;5112403;28;20457;-79
2021/09/23 00:45:47;;;;;;;9.47;7.80;;;;;;;10.72;85.11;95165.13;5112542;28;20466;-79
2021/09/23 00:48:14;;;;;;;8.30;7.27;;;;;;;10.71;84.52;95164.31;5112190;28;20989;-79
2021/09/23 00:50:43;;;;;;;8.27;7.37;;;;;;;10.72;83.65;95157.28;5112527;28;20964;-80
2021/09/23 00:53:10;;;;;;;7.27;6.57;;;;;;;10.69;84.18;95154.88;5112091;28;20446;-80
2021/09/23 00:55:38;;;;;;;8.00;7.17;;;;;;;10.73;84.79;95158.94;5112172;28;20450;-79
2021/09/23 00:58:06;;;;;;;7.30;6.07;;;;;;;10.79;84.09;95155.81;5115493;28;20453;-79
2021/09/23 01:00:33;;;;;;;7.10;6.30;;;;;;;10.76;83.54;95151.63;5115926;28;20813;-79
2021/09/23 01:03:00;;;;;;;8.33;6.20;;;;;;;10.69;84.69;95154.88;5096822;28;20430;-79
2021/09/23 01:05:27;;;;;;;9.47;6.27;;;;;;;10.66;84.73;95152.50;5116149;28;20430;-79
2021/09/23 01:07:54;;;;;;;7.17;6.47;;;;;;;10.62;84.35;95146.66;5116141;28;20993;-79
2021/09/23 01:10:21;;;;;;;6.70;6.10;;;;;;;10.59;84.59;95146.06;5116387;28;20435;-80
2021/09/23 01:12:49;;;;;;;7.63;5.63;;;;;;;10.59;85.42;95141.66;5115830;28;20449;-79
2021/09/23 01:15:18;;;;;;;7.20;6.50;;;;;;;10.59;84.97;95146.91;5115955;28;20455;-79
2021/09/23 01:17:45;;;;;;;6.90;5.73;;;;;;;10.61;85.07;95146.78;5079891;28;20443;-80
2021/09/23 01:20:13;;;;;;;6.70;6.00;;;;;;;10.64;85.85;95149.16;5115815;28;20512;-80
2021/09/23 01:22:41;;;;;;;7.13;6.17;;;;;;;10.60;85.68;95145.13;5115881;28;20443;-80
2021/09/23 01:25:10;;;;;;;6.43;5.70;;;;;;;10.58;85.87;95139.16;5115675;28;20960;-79
2021/09/23 01:27:37;;;;;;;6.27;5.23;;;;;;;10.52;86.46;95143.97;5115760;28;20478;-79
2021/09/23 01:30:05;;;;;;;5.60;5.10;;;;;;;10.65;86.03;95142.94;5115633;28;20449;-79
2021/09/23 01:32:32;;;;;;;6.07;4.97;;;;;;;10.71;85.41;95145.94;5115783;28;20527;-80
2021/09/23 01:34:59;;;;;;;5.33;4.83;;;;;;;10.69;85.65;95147.00;5115360;28;20460;-80
2021/09/23 01:37:26;;;;;;;5.13;4.53;;;;;;;10.64;86.30;95151.78;5115758;28;20445;-79
2021/09/23 01:39:54;;;;;;;4.73;4.33;;;;;;;10.59;86.20;95146.91;5079789;28;20450;-80
2021/09/23 01:42:22;;;;;;;3.50;3.20;;;;;;;10.49;86.48;95146.00;5115498;28;20438;-79
2021/09/23 01:44:49;;;;;;;4.03;3.67;;;;;;;10.38;86.88;95146.00;5115140;28;20455;-79
2021/09/23 01:47:16;;;;;;;4.60;4.17;;;;;;;10.35;87.67;95147.09;5115254;28;20482;-80
2021/09/23 01:49:43;;;;;;;4.07;3.77;;;;;;;10.36;88.59;95143.50;5115722;28;20444;-80
2021/09/23 01:52:10;;;;;;;5.93;3.83;;;;;;;10.36;88.20;95148.75;5114912;28;20455;-79
2021/09/23 01:54:37;;;;;;;4.53;4.17;;;;;;;10.38;88.36;95144.22;5096139;28;20453;-79
2021/09/23 01:57:05;;;;;;;4.80;4.40;;;;;;;10.44;87.83;95143.75;5115043;28;20450;-79
2021/09/23 01:59:32;;;;;;;4.47;4.10;;;;;;;10.49;87.60;95146.81;5114916;28;20434;-79
2021/09/23 02:01:59;;;;;;;4.77;4.23;;;;;;;10.51;87.78;95141.47;5114922;28;20443;-79
2021/09/23 02:04:26;;;;;;;4.83;4.43;;;;;;;10.52;87.76;95146.56;5115345;28;20450;-79
2021/09/23 02:06:53;;;;;;;5.03;4.60;;;;;;;10.43;87.10;95144.69;5115092;28;20488;-78
2021/09/23 02:09:20;;;;;;;5.43;4.40;;;;;;;10.43;88.67;95144.69;5114066;28;20447;-79
2021/09/23 02:11:47;;;;;;;5.10;4.70;;;;;;;10.43;88.15;95147.31;5114963;28;20445;-78
2021/09/23 02:14:15;;;;;;;5.30;4.80;;;;;;;10.49;87.84;95146.81;5114658;28;20446;-79
2021/09/23 02:16:42;;;;;;;4.40;4.00;;;;;;;10.50;87.21;95143.25;5095593;28;20779;-79
2021/09/23 02:19:09;;;;;;;4.63;4.23;;;;;;;10.51;87.61;95139.66;5114549;28;20442;-79
2021/09/23 02:21:36;;;;;;;4.23;3.90;;;;;;;10.53;88.28;95148.25;5114628;28;20530;-79
2021/09/23 02:24:03;;;;;;;4.00;3.70;;;;;;;10.53;87.97;95148.25;5095464;28;20938;-79
2021/09/23 02:26:30;;;;;;;4.60;4.20;;;;;;;10.59;87.57;95144.28;5114738;28;20443;-78
2021/09/23 02:28:57;;;;;;;4.30;4.00;;;;;;;10.53;88.24;95145.63;5114366;28;20467;-78
2021/09/23 02:31:25;;;;;;;5.97;5.00;;;;;;;10.56;88.16;95147.16;5114659;28;20441;-79
2021/09/23 02:33:52;;;;;;;6.83;5.37;;;;;;;10.54;88.34;95155.16;5114207;28;20442;-80
2021/09/23 02:36:19;;;;;;;5.43;4.93;;;;;;;10.50;87.79;95145.03;5114365;28;20434;-80
2021/09/23 02:38:46;;;;;;;3.90;3.60;;;;;;;10.50;88.24;95155.53;5114219;28;20804;-80
2021/09/23 02:41:13;;;;;;;5.30;4.73;;;;;;;10.52;88.15;95154.44;5114030;28;20445;-80
2021/09/23 02:43:40;;;;;;;5.30;4.80;;;;;;;10.53;88.04;95152.66;5094982;28;20471;-78
2021/09/23 02:46:07;;;;;;;5.20;4.63;;;;;;;10.52;88.22;95151.81;5114540;28;20817;-78
2021/09/23 02:48:35;;;;;;;4.50;4.10;;;;;;;10.50;88.52;95145.88;5113939;28;20482;-78
2021/09/23 02:51:02;;;;;;;7.43;4.40;;;;;;;10.48;87.89;95145.16;5114124;28;20443;-79
2021/09/23 02:53:29;;;;;;;5.53;5.00;;;;;;;10.54;88.46;95144.66;5114209;28;20444;-79
2021/09/23 02:55:56;;;;;;;6.33;4.20;;;;;;;10.54;88.16;95141.22;5113948;28;20440;-78
2021/09/23 02:58:23;;;;;;;5.20;4.67;;;;;;;10.59;88.45;95152.16;5094983;28;20449;-79
2021/09/23 03:00:53;;;;;;;4.33;4.03;;;;;;;10.60;87.34;95142.50;5114043;28;20480;-79
2021/09/23 03:03:20;;;;;;;4.20;3.80;;;;;;;10.54;88.28;95138.59;5114300;28;20448;-79
2021/09/23 03:05:48;;;;;;;4.23;3.90;;;;;;;10.48;88.54;95137.28;5114307;28;20442;-79
2021/09/23 03:08:15;;;;;;;3.47;3.23;;;;;;;10.52;88.86;95141.34;5094962;28;20474;-79
2021/09/23 03:10:42;;;;;;;4.50;4.10;;;;;;;10.50;88.54;95138.00;5114015;28;20473;-79
2021/09/23 03:13:09;;;;;;;4.70;4.30;;;;;;;10.45;88.17;95132.28;5113817;28;20437;-79
2021/09/23 03:15:36;;;;;;;5.10;4.07;;;;;;;10.47;89.05;95142.66;5113588;28;20448;-79
2021/09/23 03:18:03;;;;;;;4.73;4.20;;;;;;;10.50;88.72;95135.38;5077652;28;20453;-79
2021/09/23 03:20:30;;;;;;;6.13;4.90;;;;;;;10.49;88.28;95144.22;5113649;28;20434;-79
2021/09/23 03:23:00;;;;;;;5.10;4.70;;;;;;;10.49;89.12;95144.22;5113627;28;20930;-79
2021/09/23 03:25:29;;;;;;;6.23;4.87;;;;;;;10.51;88.81;95154.56;5113476;28;20452;-79
2021/09/23 03:27:57;;;;;;;4.60;4.20;;;;;;;10.53;88.38;95152.66;5113253;28;20577;-80
2021/09/23 03:30:24;;;;;;;5.30;4.80;;;;;;;10.47;88.58;95154.00;5113166;28;20439;-80
2021/09/23 03:32:51;;;;;;;4.70;4.30;;;;;;;10.42;89.43;95150.06;5113097;28;20438;-80
2021/09/23 03:35:18;;;;;;;5.33;4.87;;;;;;;10.42;89.58;95150.91;5113034;28;20944;-80
2021/09/23 03:37:46;;;;;;;6.43;4.93;;;;;;;10.51;89.62;95151.94;5112957;28;20450;-79
2021/09/23 03:40:14;;;;;;;5.67;5.17;;;;;;;10.52;88.50;95151.81;5113117;28;20451;-80
2021/09/23 03:42:42;;;;;;;5.27;4.83;;;;;;;10.50;88.52;95153.75;5113013;28;20533;-79
2021/09/23 03:45:10;;;;;;;5.17;4.67;;;;;;;10.61;88.50;95147.63;5112947;28;20470;-80
2021/09/23 03:47:37;;;;;;;5.60;5.07;;;;;;;10.65;88.61;95145.56;5077315;28;20475;-80
2021/09/23 03:50:05;;;;;;;5.20;4.80;;;;;;;10.70;88.70;95148.69;5112751;28;20474;-79
2021/09/23 03:52:33;;;;;;;5.60;5.10;;;;;;;10.61;88.23;95138.91;5113273;28;20449;-79
2021/09/23 03:55:00;;;;;;;5.90;5.30;;;;;;;10.61;88.00;95144.16;5112772;28;20439;-78
2021/09/23 03:57:28;;;;;;;5.63;5.13;;;;;;;10.68;87.93;95148.78;5112932;28;20451;-79
2021/09/23 03:59:55;;;;;;;4.87;4.37;;;;;;;10.67;87.93;95147.13;5113043;28;20527;-79
2021/09/23 04:02:23;;;;;;;5.63;5.13;;;;;;;10.75;87.59;95152.59;5112633;28;20483;-80
2021/09/23 04:04:50;;;;;;;5.93;5.33;;;;;;;10.79;88.18;95150.56;5093610;28;20430;-79
2021/09/23 04:07:17;;;;;;;4.63;4.30;;;;;;;10.81;87.73;95159.13;5112482;28;20446;-80
2021/09/23 04:09:44;;;;;;;6.27;5.67;;;;;;;10.80;87.65;95157.47;5093686;28;20442;-79
2021/09/23 04:12:11;;;;;;;5.77;5.17;;;;;;;10.84;87.68;95157.09;5093599;28;20439;-80
2021/09/23 04:14:40;;;;;;;6.10;5.50;;;;;;;10.83;87.06;95159.84;5112824;28;20521;-80
2021/09/23 04:17:07;;;;;;;6.77;6.17;;;;;;;10.89;87.46;95163.75;5112602;28;20442;-79
2021/09/23 04:19:34;;;;;;;7.57;5.53;;;;;;;10.87;87.14;95163.88;5112496;28;20460;-80
2021/09/23 04:22:01;;;;;;;5.33;4.73;;;;;;;10.84;87.06;95169.38;5112811;28;21029;-80
2021/09/23 04:24:28;;;;;;;7.10;5.27;;;;;;;10.81;87.69;95170.47;5112556;28;20790;-79
2021/09/23 04:26:55;;;;;;;5.77;5.20;;;;;;;10.79;86.77;95179.44;5112604;28;20880;-79
2021/09/23 04:29:22;;;;;;;5.10;4.60;;;;;;;10.80;86.66;95184.56;5112402;28;20485;-80
2021/09/23 04:31:51;;;;;;;5.80;5.13;;;;;;;10.83;86.69;95181.69;5113759;28;20450;-83
2021/09/23 04:34:18;;;;;;;5.93;5.20;;;;;;;10.84;87.52;95183.34;5117566;28;20879;-80
2021/09/23 04:36:44;;;;;;;5.67;4.93;;;;;;;10.83;86.64;95186.09;5117730;28;20441;-79
2021/09/23 04:39:12;;;;;;;5.67;5.17;;;;;;;10.88;87.02;95189.16;5117225;28;20952;-80
2021/09/23 04:41:39;;;;;;;5.57;4.63;;;;;;;10.85;86.96;95199.94;5117320;28;20800;-80
2021/09/23 04:44:06;;;;;;;6.33;5.10;;;;;;;10.83;86.37;95200.06;5117318;28;20443;-78
2021/09/23 04:46:33;;;;;;;5.77;5.37;;;;;;;10.93;87.30;95207.19;5117119;28;20473;-81
2021/09/23 04:49:01;;;;;;;14.73;5.97;;;;;;;10.94;86.50;95206.22;5117346;28;20563;-80
2021/09/23 04:51:29;;;;;;;5.70;5.13;;;;;;;11.01;86.47;95218.75;5117309;28;20449;-82
2021/09/23 04:53:57;;;;;;;5.03;4.63;;;;;;;10.99;87.76;95214.56;5117878;28;20439;-80
2021/09/23 04:56:24;;;;;;;5.43;4.93;;;;;;;10.98;87.89;95223.38;5117630;28;20442;-79
2021/09/23 04:58:51;;;;;;;5.50;5.00;;;;;;;11.01;87.34;95229.25;5117333;28;20825;-81
2021/09/23 05:01:17;;;;;;;6.70;6.10;;;;;;;11.02;87.15;95228.28;5117285;28;20445;-81
2021/09/23 05:03:44;;;;;;;6.00;5.40;;;;;;;11.00;87.06;95238.09;5117029;28;20809;-80
2021/09/23 05:06:13;;;;;;;7.30;6.20;;;;;;;10.99;88.22;95241.66;5116837;28;20526;-80
2021/09/23 05:08:40;;;;;;;9.40;6.73;;;;;;;10.98;87.19;95245.22;5117328;28;20485;-81
2021/09/23 05:11:07;;;;;;;9.90;6.30;;;;;;;10.98;87.52;95253.09;5116916;28;20460;-80
2021/09/23 05:13:34;;;;;;;7.55;6.50;;;;;;;10.95;90.01;95247.25;5081219;28;20498;-82
2021/09/23 05:16:01;;;;;;;6.40;5.77;;;;;;;10.95;87.41;95258.59;5117307;27;20208;-84
2021/09/23 05:18:28;;;;;;;13.70;6.63;;;;;;;10.90;88.00;95262.56;5081091;28;20455;-80
2021/09/23 05:20:54;;;;;;;7.33;5.90;;;;;;;10.84;87.64;95261.25;5117320;28;20537;-81
2021/09/23 05:23:23;;;;;;;6.67;5.97;;;;;;;10.86;87.71;95260.19;5116984;28;20445;-79
2021/09/23 05:25:50;;;;;;;6.67;6.00;;;;;;;10.81;86.81;95261.50;5097684;28;20433;-80
2021/09/23 05:28:17;;;;;;;7.70;6.97;;;;;;;10.88;88.96;95264.47;5116534;28;20507;-80
2021/09/23 05:30:44;;;;;;;7.13;5.60;;;;;;;10.87;88.03;95266.25;5097498;28;20437;-79
2021/09/23 05:33:12;;;;;;;7.57;6.47;;;;;;;10.88;87.41;95275.81;5116847;28;20447;-81
2021/09/23 05:35:39;;;;;;;8.80;6.40;;;;;;;10.88;87.84;95267.09;5116342;28;20441;-79
2021/09/23 05:38:06;;;;;;;10.73;7.50;;;;;;;10.90;86.75;95270.44;5115978;28;20944;-80
2021/09/23 05:40:35;;;;;;;11.33;7.77;;;;;;;10.88;87.23;95278.44;5116547;28;20443;-81
2021/09/23 05:43:02;;;;;;;9.33;7.23;;;;;;;11.02;91.20;95275.56;5115071;28;20821;-82
2021/09/23 05:45:29;;;;;;;7.73;6.83;;;;;;;11.02;87.37;95280.81;5116253;28;20477;-82
2021/09/23 05:47:56;;;;;;;8.43;7.57;;;;;;;11.06;85.69;95291.91;5116031;28;20486;-81
2021/09/23 05:50:23;;;;;;;7.40;6.70;;;;;;;11.03;86.54;95284.28;5115865;28;20439;-78
2021/09/23 05:52:50;;;;;;;10.20;8.07;;;;;;;11.01;86.17;95292.28;5102590;28;20448;-82
2021/09/23 05:55:18;;;;;;;7.73;6.93;;;;;;;11.05;85.34;95288.44;5096390;28;20428;-83
2021/09/23 05:57:46;;;;;;;11.10;9.00;;;;;;;11.02;85.83;95296.56;5100069;28;20451;-84
2021/09/23 06:00:16;;;;;;;9.67;7.30;;;;;;;11.01;85.43;95301.94;5116477;28;20442;-84
2021/09/23 06:02:44;;;;;;;9.63;7.90;;;;;;;11.04;86.18;95309.56;5116570;28;20787;-83
2021/09/23 06:05:13;;;;;;;9.63;8.43;;;;;;;11.07;85.24;95304.91;5074582;28;20969;-83
2021/09/23 06:07:41;;;;;;;8.10;7.30;;;;;;;11.13;86.32;95314.91;5108697;28;20451;-85
2021/09/23 06:10:10;;;;;;;9.63;8.17;;;;;;;11.21;85.29;95302.94;5116192;28;20453;-84
2021/09/23 06:12:37;;;;;;;8.80;7.87;;;;;;;11.29;87.95;95313.69;5116107;28;20440;-84
2021/09/23 06:15:07;;;;;;;9.00;8.00;;;;;;;11.28;84.32;95312.03;5079210;28;20435;-85
2021/09/23 06:17:34;;;;;;;7.80;7.10;;;;;;;11.46;86.61;95313.13;5115868;28;20442;-82
2021/09/23 06:20:01;;;;;;;8.47;7.33;;;;;;;11.62;86.42;95318.81;5098157;28;20562;-83
2021/09/23 06:22:28;;;;;;;12.50;9.07;;;;;;;11.76;84.62;95318.50;5095680;28;20484;-84
2021/09/23 06:24:55;;;;;;;9.33;8.40;;;;;;;11.83;83.56;95318.84;5095764;28;20446;-83
2021/09/23 06:27:22;;;;;;;9.13;7.43;;;;;;;11.88;82.08;95321.97;5095652;28;20444;-83
2021/09/23 06:29:49;;;;;;;9.67;8.20;;;;;;;11.99;83.53;95316.63;5076345;28;20481;-83
2021/09/23 06:32:17;;;;;;;12.20;8.80;;;;;;;12.09;81.96;95319.31;5106846;28;20453;-83
2021/09/23 06:34:44;;;;;;;8.83;7.50;;;;;;;12.36;90.03;95321.41;5079954;28;20916;-84
2021/09/23 06:37:13;;;;;;;8.90;7.27;;;;;;;12.36;81.37;95324.06;5113719;28;20454;-85
2021/09/23 06:39:40;;;;;;;11.57;9.60;;;;;;;12.43;79.96;95338.34;5115704;28;20459;-84
2021/09/23 06:42:07;;;;;;;11.63;9.13;;;;;;;12.26;78.75;95331.91;5114035;28;20451;-89
2021/09/23 06:44:35;;;;;;;20.20;14.87;;;;;;;12.14;78.94;95338.19;5110380;28;20837;-84
2021/09/23 06:47:02;;;;;;;20.63;15.10;;;;;;;12.07;78.89;95326.50;5079520;28;20487;-86
2021/09/23 06:49:30;;;;;;;14.43;10.57;;;;;;;12.05;80.02;95337.16;5101177;28;20492;-87
2021/09/23 06:51:57;;;;;;;13.03;10.53;;;;;;;11.88;78.67;95336.91;5095073;28;20445;-86
2021/09/23 06:54:24;;;;;;;10.17;9.07;;;;;;;11.93;80.31;95340.00;5094552;28;20456;-85
2021/09/23 06:56:51;;;;;;;10.33;9.10;;;;;;;12.05;80.09;95336.31;5094728;28;20447;-85
2021/09/23 06:59:18;;;;;;;11.30;8.93;;;;;;;12.19;80.41;95341.28;5094925;28;20446;-84
2021/09/23 07:01:45;;;;;;;9.20;8.00;;;;;;;12.53;81.90;95343.69;5095129;28;20774;-83
2021/09/23 07:04:11;;;;;;;14.33;9.03;;;;;;;12.94;76.74;95345.38;5095160;28;20447;-83
2021/09/23 07:06:41;;;;;;;11.00;9.70;;;;;;;13.48;74.39;95341.53;5114765;28;20463;-80
2021/09/23 07:09:08;;;;;;;12.10;8.83;;;;;;;14.09;72.46;95351.81;5114729;28;20488;-82
2021/09/23 07:11:38;;;;;;;9.07;8.17;;;;;;;14.62;69.35;95346.06;5114418;28;20447;-81
2021/09/23 07:14:06;;;;;;;9.30;7.37;;;;;;;14.93;67.35;95350.13;5104442;28;20463;-82
2021/09/23 07:16:33;;;;;;;8.80;8.00;;;;;;;15.19;67.54;95348.50;5101266;28;20942;-82
2021/09/23 07:19:00;;;;;;;9.37;8.30;;;;;;;15.39;65.30;95343.94;5095346;28;20439;-85
2021/09/23 07:21:28;;;;;;;8.57;7.70;;;;;;;15.40;62.66;95339.47;5114609;28;20849;-84
2021/09/23 07:23:57;;;;;;;10.00;7.77;;;;;;;15.15;65.22;95346.28;5095900;28;20514;-84
2021/09/23 07:26:24;;;;;;;8.40;7.53;;;;;;;14.92;65.43;95337.06;5095870;28;20447;-85
2021/09/23 07:28:50;;;;;;;9.10;8.30;;;;;;;14.66;67.41;95336.88;5114425;28;20484;-85
2021/09/23 07:31:17;;;;;;;8.97;8.10;;;;;;;14.42;67.50;95337.31;5115100;28;20464;-84
2021/09/23 07:33:45;;;;;;;10.33;7.97;;;;;;;14.07;68.74;95330.03;5078840;28;20442;-86
2021/09/23 07:36:13;;;;;;;8.93;8.07;;;;;;;14.20;65.95;95312.94;5114836;28;20453;-82
2021/09/23 07:38:39;;;;;;;13.17;9.30;;;;;;;14.40;69.21;95321.63;5114539;28;20454;-81
2021/09/23 07:41:09;;;;;;;10.53;9.50;;;;;;;14.47;67.56;95317.50;5114865;28;20453;-81
2021/09/23 07:43:36;;;;;;;11.60;9.90;;;;;;;14.25;66.96;95315.97;5114028;28;20445;-82
2021/09/23 07:46:03;;;;;;;15.90;11.23;;;;;;;14.26;67.40;95315.00;5113964;28;20482;-82
2021/09/23 07:48:30;;;;;;;9.40;8.10;;;;;;;14.16;66.47;95315.97;5113991;28;20926;-82
2021/09/23 07:50:58;;;;;;;16.07;10.70;;;;;;;13.98;66.36;95317.69;5114167;28;20480;-83
2021/09/23 07:53:26;;;;;;;12.50;7.80;;;;;;;14.14;66.18;95313.47;5114518;28;20515;-82
2021/09/23 07:55:54;;;;;;;8.80;7.90;;;;;;;14.41;65.83;95310.09;5114223;28;20533;-83
2021/09/23 07:58:22;;;;;;;8.63;7.00;;;;;;;14.67;66.04;95301.56;5114116;28;20447;-83
2021/09/23 08:00:49;;;;;;;8.50;7.40;;;;;;;14.95;61.52;95302.41;5113959;28;20807;-82
2021/09/23 08:03:16;;;;;;;8.70;7.27;;;;;;;15.19;61.87;95300.06;5113829;28;20480;-82
2021/09/23 08:05:43;;;;;;;8.03;7.23;;;;;;;15.09;59.61;95304.59;5113343;28;20435;-82
2021/09/23 08:08:10;;;;;;;8.77;7.23;;;;;;;15.23;60.98;95300.59;5077947;28;20445;-82
2021/09/23 08:10:37;;;;;;;8.23;6.47;;;;;;;15.35;58.94;95316.13;5114025;28;20482;-81
2021/09/23 08:13:04;;;;;;;7.00;6.30;;;;;;;15.53;60.06;95315.31;5114094;28;20928;-82
2021/09/23 08:15:32;;;;;;;7.37;6.67;;;;;;;15.66;58.10;95318.47;5113785;28;20455;-83
2021/09/23 08:17:59;;;;;;;7.77;7.03;;;;;;;15.57;58.10;95316.66;5113894;28;20785;-83
2021/09/23 08:20:27;;;;;;;13.73;6.53;;;;;;;15.62;57.31;95317.09;5113789;28;20446;-82
2021/09/23 08:22:54;;;;;;;8.63;7.70;;;;;;;15.72;57.96;95313.38;5112600;28;20545;-82
2021/09/23 08:25:21;;;;;;;7.83;7.13;;;;;;;15.88;58.14;95307.41;5102514;28;20523;-82
2021/09/23 08:27:48;;;;;;;8.07;7.37;;;;;;;15.94;57.12;95313.91;5093136;28;20458;-82
2021/09/23 08:30:17;;;;;;;6.87;6.27;;;;;;;15.77;57.45;95321.69;5093731;28;20488;-82
2021/09/23 08:32:45;;;;;;;7.27;6.33;;;;;;;15.54;56.25;95325.72;5093173;28;20452;-82
2021/09/23 08:35:12;;;;;;;7.03;6.37;;;;;;;15.65;57.42;95316.78;5057656;28;20440;-80
2021/09/23 08:37:41;;;;;;;7.43;5.60;;;;;;;15.80;58.78;95320.56;5106451;28;20444;-83
2021/09/23 08:40:11;;;;;;;6.87;6.23;;;;;;;15.62;56.30;95327.69;5113688;28;20522;-83
2021/09/23 08:42:39;;;;;;;11.80;6.37;;;;;;;15.13;56.72;95321.81;5113765;28;20436;-79
2021/09/23 08:45:09;;;;;;;7.80;6.00;;;;;;;14.87;58.09;95314.56;5113509;28;20450;-84
2021/09/23 08:47:36;;;;;;;7.10;6.40;;;;;;;14.77;59.99;95319.06;5113826;28;20530;-83
2021/09/23 08:50:08;;;;;;;7.03;6.33;;;;;;;14.63;59.04;95318.69;5095242;28;20494;-81
2021/09/23 08:52:36;;;;;;;6.17;5.53;;;;;;;14.63;60.00;95323.97;5113190;28;20432;-83
2021/09/23 08:55:03;;;;;;;8.43;5.93;;;;;;;14.90;58.50;95315.25;5113617;28;20445;-82
2021/09/23 08:57:30;;;;;;;6.60;4.83;;;;;;;15.11;57.28;95321.97;5113265;28;20448;-83
2021/09/23 08:59:57;;;;;;;7.80;6.63;;;;;;;15.57;58.75;95325.44;5077586;28;20473;-83
2021/09/23 09:02:26;;;;;;;5.83;5.30;;;;;;;15.91;54.86;95320.34;5077709;28;20423;-83
2021/09/23 09:04:55;;;;;;;5.73;5.23;;;;;;;16.19;54.70;95315.78;5077834;28;20441;-81
2021/09/23 09:07:28;;;;;;;5.20;4.70;;;;;;;16.39;53.64;95311.13;5113561;28;20533;-83
2021/09/23 09:10:06;;;;;;;5.20;4.80;;;;;;;16.46;52.93;95306.84;5113934;28;20572;-83
2021/09/23 09:12:34;;;;;;;6.67;6.00;;;;;;;16.51;52.55;95298.47;5113738;28;20456;-82
2021/09/23 09:15:02;;;;;;;5.70;5.20;;;;;;;16.51;51.47;95301.94;5113553;28;20450;-83
2021/09/23 09:17:35;;;;;;;6.10;5.50;;;;;;;16.28;52.69;95319.31;5113913;28;20445;-82
2021/09/23 09:20:04;;;;;;;6.13;5.60;;;;;;;16.37;53.37;95313.91;5116864;28;20446;-82
2021/09/23 09:22:35;;;;;;;6.73;5.90;;;;;;;16.39;52.36;95308.47;5117368;28;20443;-83
2021/09/23 09:25:05;;;;;;;6.30;5.43;;;;;;;16.63;53.85;95311.28;5117074;28;20467;-83
2021/09/23 09:27:35;;;;;;;7.10;6.40;;;;;;;16.67;52.14;95309.16;5117135;28;20922;-82
2021/09/23 09:30:09;;;;;;;5.30;4.90;;;;;;;16.41;51.85;95315.25;5116644;28;20999;-81
2021/09/23 09:32:43;;;;;;;6.30;5.37;;;;;;;16.29;52.30;95315.69;5117130;28;20441;-82
2021/09/23 09:35:13;;;;;;;5.80;5.30;;;;;;;16.38;52.75;95320.88;5116910;28;20918;-83
2021/09/23 09:37:43;;;;;;;6.60;6.00;;;;;;;16.36;51.02;95311.44;5116653;28;20438;-85
2021/09/23 09:40:16;;;;;;;7.63;5.13;;;;;;;16.39;50.89;95304.00;5116894;28;20437;-82
2021/09/23 09:42:45;;;;;;;13.30;8.60;;;;;;;16.53;51.79;95305.25;5113686;28;21001;-81
2021/09/23 09:45:17;;;;;;;6.90;6.30;;;;;;;16.43;50.67;95302.69;5103187;28;20535;-82
2021/09/23 09:47:52;;;;;;;5.83;5.33;;;;;;;16.37;50.61;95302.50;5119867;28;20469;-84
2021/09/23 09:50:20;;;;;;;5.87;5.37;;;;;;;16.48;51.23;95285.50;5116374;28;20514;-82
2021/09/23 09:52:57;;;;;;;5.40;4.90;;;;;;;16.59;52.35;95286.09;5097552;28;20433;-83
2021/09/23 09:55:25;;;;;;;5.20;4.80;;;;;;;16.61;51.89;95283.28;5115969;28;20447;-82
2021/09/23 09:57:52;;;;;;;5.57;5.17;;;;;;;16.72;50.50;95290.97;5116535;28;20427;-82
2021/09/23 10:00:20;;;;;;;4.87;4.47;;;;;;;16.65;50.83;95282.78;5080179;28;20435;-82
2021/09/23 10:02:48;;;;;;;6.10;5.50;;;;;;;16.55;49.98;95284.75;5116139;28;20430;-84
2021/09/23 10:05:19;;;;;;;4.80;4.40;;;;;;;16.26;50.58;95285.06;5105930;28;20449;-82
2021/09/23 10:07:48;;;;;;;4.50;4.20;;;;;;;16.27;51.22;95289.34;5096224;28;20455;-84
2021/09/23 10:10:19;;;;;;;5.50;5.10;;;;;;;16.29;52.36;95289.19;5095411;28;20996;-85
2021/09/23 10:12:48;;;;;;;6.07;4.97;;;;;;;16.16;51.46;95286.94;5098479;28;20455;-82
2021/09/23 10:15:17;;;;;;;7.43;6.20;;;;;;;16.00;52.09;95290.31;5113362;28;20449;-80
2021/09/23 10:17:45;;;;;;;5.20;4.80;;;;;;;16.27;53.26;95283.22;5111211;28;20807;-83
2021/09/23 10:20:15;;;;;;;6.50;5.73;;;;;;;16.16;51.92;95288.75;5115829;28;20442;-84
2021/09/23 10:22:42;;;;;;;5.70;5.20;;;;;;;16.15;51.44;95287.09;5115789;28;20457;-86
2021/09/23 10:25:14;;;;;;;6.30;5.70;;;;;;;16.08;52.14;95290.38;5080547;28;20858;-82
2021/09/23 10:28:03;;;;;;;6.10;5.20;;;;;;;16.05;52.02;95280.09;5097141;28;20922;-83
2021/09/23 10:30:33;;;;;;;5.80;5.20;;;;;;;16.02;52.21;95287.50;5115187;28;20485;-82
2021/09/23 10:33:01;;;;;;;5.57;5.07;;;;;;;15.99;53.18;95286.00;5116041;28;20531;-82
2021/09/23 10:35:29;;;;;;;7.20;5.87;;;;;;;15.89;51.42;95279.13;5096616;28;20430;-83
2021/09/23 10:37:58;;;;;;;5.80;5.30;;;;;;;16.00;52.48;95269.13;5115521;28;20464;-82
2021/09/23 10:40:27;;;;;;;7.10;6.40;;;;;;;16.06;53.33;95279.09;5079147;28;20518;-84
2021/09/23 10:43:01;;;;;;;6.70;4.87;;;;;;;16.14;52.82;95270.38;5115755;28;20806;-82
2021/09/23 10:45:29;;;;;;;5.70;5.10;;;;;;;16.22;51.32;95278.41;5103292;28;20821;-82
2021/09/23 10:47:58;;;;;;;5.63;5.13;;;;;;;16.30;53.12;95274.97;5095632;28;20447;-81
2021/09/23 10:50:27;;;;;;;15.73;5.60;;;;;;;16.39;51.99;95287.28;5095103;28;20505;-80
2021/09/23 10:52:56;;;;;;;8.17;5.70;;;;;;;16.31;51.69;95269.53;5094579;28;20450;-77
2021/09/23 10:55:25;;;;;;;5.80;5.20;;;;;;;16.28;52.73;95277.78;5096351;28;20443;-77
2021/09/23 10:57:53;;;;;;;5.47;4.87;;;;;;;16.31;51.87;95285.41;5114384;28;20450;-77
2021/09/23 11:00:25;;;;;;;5.23;4.73;;;;;;;16.41;52.55;95266.75;5095420;28;20444;-77
2021/09/23 11:02:54;;;;;;;6.17;5.67;;;;;;;16.46;53.53;95279.53;5114167;28;20439;-78
2021/09/23 11:05:21;;;;;;;5.47;5.00;;;;;;;16.47;51.61;95276.72;5095561;28;20448;-78
2021/09/23 11:07:50;;;;;;;5.57;5.07;;;;;;;16.34;51.00;95276.31;5094043;28;20457;-76
2021/09/23 11:10:19;;;;;;;6.23;5.20;;;;;;;16.43;51.60;95275.38;5094020;28;20993;-77
2021/09/23 11:12:48;;;;;;;6.30;5.30;;;;;;;16.42;51.41;95271.06;5093761;28;20534;-77
2021/09/23 11:15:18;;;;;;;5.00;4.60;;;;;;;16.39;50.55;95274.84;5103067;28;20446;-77
2021/09/23 11:17:47;;;;;;;5.07;4.67;;;;;;;16.36;50.63;95283.13;5113863;28;20450;-77
2021/09/23 11:20:18;;;;;;;4.40;4.00;;;;;;;16.39;50.35;95272.22;5096398;28;20507;-77
2021/09/23 11:22:48;;;;;;;10.70;4.60;;;;;;;16.32;49.75;95267.69;5099977;28;20863;-77
2021/09/23 11:25:17;;;;;;;5.43;4.93;;;;;;;16.48;51.82;95267.81;5113424;28;20435;-77
2021/09/23 11:27:46;;;;;;;4.70;4.37;;;;;;;16.63;50.14;95276.81;5084895;28;20301;-77
2021/09/23 11:30:15;;;;;;;4.37;4.03;;;;;;;16.61;49.91;95278.81;5102445;28;20483;-77
2021/09/23 11:32:49;;;;;;;5.43;4.97;;;;;;;16.67;49.20;95272.91;5093350;28;20446;-78
2021/09/23 11:35:17;;;;;;;5.43;4.80;;;;;;;16.71;52.21;95274.25;5093857;28;20439;-77